Station Historical Data
Daily Summary for January 13, 2012 Units:  English    Metric   Both
« Previous Day
Next Day »
Daily Weekly Monthly Yearly Custom
  High: Low: Average:
Temperature: 35.2 °F 23.6 °F 28 °F
Dew Point: 22.5 °F 15.8 °F 19.3 °F
Humidity: 82% 55% 70%
Wind Speed: 17.0mph 0.0mph 5.6mph
Wind Gust: 17.0mph - -
Wind- - WSW
Pressure: 30.24 in 30.00 in -
Precipitation: 0.00 in    
Historical Graphs
 
 
Tabular Data for January 13, 2012
Time Temperature Dew Point Pressure Wind Wind Speed Wind Gust Humidity Rainfall Rate (Hourly) Conditions
00:00 24.3 °F 18.1 °F 30.00 in West 6.0 mph 9.0 mph 77% 0.00 in
00:01 24.3 °F 18.4 °F 30.00 in WSW 6.0 mph 9.0 mph 78% 0.00 in
00:06 24.4 °F 18.5 °F 30.00 in SW 6.0 mph 14.0 mph 78% 0.00 in
00:11 24.5 °F 18.6 °F 30.00 in SW 8.0 mph 11.0 mph 78% 0.00 in
00:16 24.5 °F 18.6 °F 30.00 in SSW 5.0 mph 9.0 mph 78% 0.00 in
00:21 24.5 °F 18.6 °F 30.00 in West 6.0 mph 10.0 mph 78% 0.00 in
00:26 24.6 °F 18.7 °F 30.00 in WSW 7.0 mph 12.0 mph 78% 0.00 in
00:31 24.7 °F 18.8 °F 30.00 in WSW 8.0 mph 10.0 mph 78% 0.00 in
00:36 24.8 °F 18.6 °F 30.00 in SW 15.0 mph 15.0 mph 77% 0.00 in
00:41 24.8 °F 18.6 °F 30.00 in WNW 7.0 mph 11.0 mph 77% 0.00 in
00:46 24.9 °F 19.0 °F 30.00 in WSW 6.0 mph 10.0 mph 78% 0.00 in
00:51 24.9 °F 19.0 °F 30.00 in West 7.0 mph 10.0 mph 78% 0.00 in
00:56 24.9 °F 19.0 °F 30.01 in WSW 10.0 mph 11.0 mph 78% 0.00 in
01:01 24.9 °F 19.0 °F 30.01 in West 8.0 mph 11.0 mph 78% 0.00 in
01:06 24.9 °F 19.0 °F 30.01 in West 8.0 mph 9.0 mph 78% 0.00 in
01:11 24.9 °F 18.4 °F 30.02 in WNW 7.0 mph 14.0 mph 76% 0.00 in
01:16 24.8 °F 18.0 °F 30.02 in WNW 17.0 mph 17.0 mph 75% 0.00 in
01:21 24.7 °F 16.6 °F 30.02 in WNW 13.0 mph 17.0 mph 71% 0.00 in
01:26 24.6 °F 16.9 °F 30.02 in West 12.0 mph 17.0 mph 72% 0.00 in
01:32 24.5 °F 16.5 °F 30.03 in WNW 7.0 mph 17.0 mph 71% 0.00 in
01:37 24.4 °F 16.0 °F 30.03 in WNW 9.0 mph 13.0 mph 70% 0.00 in
01:42 24.3 °F 16.3 °F 30.03 in WSW 11.0 mph 13.0 mph 71% 0.00 in
01:47 24.2 °F 16.2 °F 30.03 in WNW 6.0 mph 13.0 mph 71% 0.00 in
01:52 24.2 °F 15.8 °F 30.03 in WNW 10.0 mph 13.0 mph 70% 0.00 in
01:57 24.2 °F 16.2 °F 30.03 in WNW 8.0 mph 10.0 mph 71% 0.00 in
02:02 24.1 °F 16.4 °F 30.03 in WNW 7.0 mph 12.0 mph 72% 0.00 in
02:07 24.1 °F 16.7 °F 30.03 in WNW 9.0 mph 11.0 mph 73% 0.00 in
02:12 24.0 °F 16.9 °F 30.03 in West 4.0 mph 7.0 mph 74% 0.00 in
02:17 24.0 °F 16.6 °F 30.04 in WNW 6.0 mph 9.0 mph 73% 0.00 in
02:22 24.0 °F 16.6 °F 30.04 in WNW 5.0 mph 9.0 mph 73% 0.00 in
02:27 24.0 °F 16.6 °F 30.04 in West 8.0 mph 10.0 mph 73% 0.00 in
02:32 23.9 °F 16.8 °F 30.04 in WNW 6.0 mph 10.0 mph 74% 0.00 in
02:37 23.9 °F 16.8 °F 30.04 in WSW 6.0 mph 12.0 mph 74% 0.00 in
02:42 23.8 °F 16.1 °F 30.04 in WNW 8.0 mph 11.0 mph 72% 0.00 in
02:47 23.8 °F 16.4 °F 30.04 in West 6.0 mph 13.0 mph 73% 0.00 in
02:52 23.8 °F 16.4 °F 30.04 in WNW 7.0 mph 13.0 mph 73% 0.00 in
02:57 23.8 °F 16.4 °F 30.05 in WNW 7.0 mph 14.0 mph 73% 0.00 in
03:02 23.7 °F 16.6 °F 30.05 in West 6.0 mph 12.0 mph 74% 0.00 in
03:07 23.7 °F 16.3 °F 30.04 in West 6.0 mph 10.0 mph 73% 0.00 in
03:12 23.7 °F 16.6 °F 30.04 in West 3.0 mph 8.0 mph 74% 0.00 in
03:17 23.7 °F 16.6 °F 30.04 in West 3.0 mph 8.0 mph 74% 0.00 in
03:22 23.7 °F 17.0 °F 30.04 in SW 3.0 mph 7.0 mph 75% 0.00 in
03:27 23.7 °F 16.6 °F 30.05 in West 4.0 mph 6.0 mph 74% 0.00 in
03:32 23.7 °F 17.3 °F 30.05 in WSW 6.0 mph 6.0 mph 76% 0.00 in
03:37 23.7 °F 17.3 °F 30.04 in SW 8.0 mph 8.0 mph 76% 0.00 in
03:42 23.7 °F 17.6 °F 30.05 in WSW 6.0 mph 6.0 mph 77% 0.00 in
03:47 23.7 °F 17.6 °F 30.05 in WSW 3.0 mph 5.0 mph 77% 0.00 in
03:52 23.6 °F 17.5 °F 30.04 in WSW 4.0 mph 4.0 mph 77% 0.00 in
03:57 23.6 °F 17.2 °F 30.04 in West 4.0 mph 7.0 mph 76% 0.00 in
04:03 23.7 °F 17.3 °F 30.04 in WSW 4.0 mph 7.0 mph 76% 0.00 in
04:08 23.7 °F 17.6 °F 30.05 in SW 5.0 mph 6.0 mph 77% 0.00 in
04:13 23.7 °F 17.6 °F 30.05 in West 3.0 mph 6.0 mph 77% 0.00 in
04:18 23.7 °F 17.3 °F 30.05 in SW 3.0 mph 6.0 mph 76% 0.00 in
04:23 23.7 °F 17.9 °F 30.05 in SW 4.0 mph 4.0 mph 78% 0.00 in
04:28 23.8 °F 17.7 °F 30.05 in SW 3.0 mph 6.0 mph 77% 0.00 in
04:33 23.8 °F 17.7 °F 30.05 in SSW 2.0 mph 6.0 mph 77% 0.00 in
04:38 23.8 °F 17.4 °F 30.05 in SSW 4.0 mph 7.0 mph 76% 0.00 in
04:43 23.8 °F 18.0 °F 30.05 in SSW 5.0 mph 6.0 mph 78% 0.00 in
04:48 23.9 °F 17.8 °F 30.05 in SW 5.0 mph 7.0 mph 77% 0.00 in
04:53 23.9 °F 17.8 °F 30.05 in SW 6.0 mph 7.0 mph 77% 0.00 in
04:58 23.9 °F 17.8 °F 30.05 in SSW 5.0 mph 9.0 mph 77% 0.00 in
05:03 23.9 °F 18.0 °F 30.05 in SW 2.0 mph 8.0 mph 78% 0.00 in
05:08 23.9 °F 17.8 °F 30.06 in WSW 5.0 mph 8.0 mph 77% 0.00 in
05:13 24.0 °F 18.1 °F 30.06 in WSW 4.0 mph 4.0 mph 78% 0.00 in
05:18 24.0 °F 17.9 °F 30.06 in WSW 4.0 mph 8.0 mph 77% 0.00 in
05:23 24.0 °F 17.9 °F 30.06 in SW 7.0 mph 8.0 mph 77% 0.00 in
05:28 24.1 °F 18.2 °F 30.06 in SW 4.0 mph 7.0 mph 78% 0.00 in
05:33 24.2 °F 18.0 °F 30.06 in SW 5.0 mph 8.0 mph 77% 0.00 in
05:38 24.2 °F 18.0 °F 30.07 in WSW 7.0 mph 8.0 mph 77% 0.00 in
05:43 24.2 °F 18.0 °F 30.07 in WSW 6.0 mph 9.0 mph 77% 0.00 in
05:48 24.2 °F 18.3 °F 30.07 in WSW 7.0 mph 7.0 mph 78% 0.00 in
05:53 24.3 °F 18.4 °F 30.07 in WSW 6.0 mph 10.0 mph 78% 0.00 in
05:58 24.3 °F 18.4 °F 30.07 in WSW 5.0 mph 10.0 mph 78% 0.00 in
06:03 24.4 °F 18.5 °F 30.07 in SW 10.0 mph 11.0 mph 78% 0.00 in
06:08 24.4 °F 18.5 °F 30.07 in SW 11.0 mph 11.0 mph 78% 0.00 in
06:13 24.4 °F 18.5 °F 30.07 in SW 8.0 mph 8.0 mph 78% 0.00 in
06:18 24.5 °F 18.3 °F 30.08 in WSW 5.0 mph 12.0 mph 77% 0.00 in
06:23 24.5 °F 18.6 °F 30.07 in SW 9.0 mph 9.0 mph 78% 0.00 in
06:28 24.6 °F 18.7 °F 30.07 in SSW 8.0 mph 11.0 mph 78% 0.00 in
06:33 24.6 °F 18.7 °F 30.08 in SW 7.0 mph 9.0 mph 78% 0.00 in
06:38 24.6 °F 18.7 °F 30.08 in SW 11.0 mph 11.0 mph 78% 0.00 in
06:43 24.7 °F 18.8 °F 30.08 in SW 6.0 mph 7.0 mph 78% 0.00 in
06:48 24.7 °F 18.5 °F 30.08 in WSW 7.0 mph 10.0 mph 77% 0.00 in
06:53 24.7 °F 18.5 °F 30.08 in SW 8.0 mph 11.0 mph 77% 0.00 in
06:58 24.7 °F 18.8 °F 30.08 in WSW 9.0 mph 10.0 mph 78% 0.00 in
07:04 24.7 °F 18.5 °F 30.09 in West 3.0 mph 12.0 mph 77% 0.00 in
07:09 24.7 °F 18.8 °F 30.09 in SW 6.0 mph 10.0 mph 78% 0.00 in
07:14 24.8 °F 18.6 °F 30.09 in WSW 8.0 mph 12.0 mph 77% 0.00 in
07:19 24.8 °F 18.6 °F 30.09 in West 6.0 mph 10.0 mph 77% 0.00 in
07:24 24.8 °F 18.6 °F 30.09 in SW 6.0 mph 9.0 mph 77% 0.00 in
07:29 24.8 °F 18.9 °F 30.09 in SW 6.0 mph 12.0 mph 78% 0.00 in
07:34 24.8 °F 19.2 °F 30.09 in WSW 2.0 mph 7.0 mph 79% 0.00 in
07:39 24.7 °F 19.4 °F 30.10 in WSW 5.0 mph 7.0 mph 80% 0.00 in
07:44 24.6 °F 19.3 °F 30.10 in SW 8.0 mph 9.0 mph 80% 0.00 in
07:49 24.7 °F 19.1 °F 30.10 in SW 9.0 mph 9.0 mph 79% 0.00 in
07:54 24.7 °F 19.4 °F 30.11 in SW 4.0 mph 7.0 mph 80% 0.00 in
07:59 24.6 °F 19.6 °F 30.11 in WSW 6.0 mph 8.0 mph 81% 0.00 in
08:04 24.6 °F 19.3 °F 30.11 in SW 6.0 mph 12.0 mph 80% 0.00 in
08:09 24.7 °F 19.7 °F 30.11 in WSW 7.0 mph 7.0 mph 81% 0.00 in
08:14 24.7 °F 19.4 °F 30.11 in WSW 6.0 mph 10.0 mph 80% 0.00 in
08:19 24.7 °F 19.1 °F 30.11 in West 8.0 mph 13.0 mph 79% 0.00 in
08:24 24.7 °F 19.4 °F 30.12 in SW 9.0 mph 9.0 mph 80% 0.00 in
08:29 24.7 °F 19.7 °F 30.12 in WSW 9.0 mph 9.0 mph 81% 0.00 in
08:34 24.6 °F 19.6 °F 30.12 in SW 8.0 mph 9.0 mph 81% 0.00 in
08:39 24.7 °F 19.7 °F 30.13 in WSW 4.0 mph 7.0 mph 81% 0.00 in
08:45 24.7 °F 19.7 °F 30.13 in WSW 9.0 mph 9.0 mph 81% 0.00 in
08:49 24.8 °F 20.1 °F 30.13 in West 4.0 mph 7.0 mph 82% 0.00 in
08:54 24.9 °F 19.9 °F 30.14 in WSW 6.0 mph 10.0 mph 81% 0.00 in
08:59 24.9 °F 19.9 °F 30.14 in WNW 3.0 mph 11.0 mph 81% 0.00 in
09:04 25.0 °F 20.0 °F 30.14 in WSW 7.0 mph 10.0 mph 81% 0.00 in
09:09 25.0 °F 20.3 °F 30.14 in WSW 7.0 mph 9.0 mph 82% 0.00 in
09:15 25.0 °F 20.0 °F 30.15 in WNW 4.0 mph 12.0 mph 81% 0.00 in
09:20 25.0 °F 19.7 °F 30.14 in West 5.0 mph 6.0 mph 80% 0.00 in
09:25 25.5 °F 20.2 °F 30.15 in WSW 8.0 mph 8.0 mph 80% 0.00 in
09:30 25.6 °F 19.4 °F 30.15 in WSW 6.0 mph 10.0 mph 77% 0.00 in
09:34 25.5 °F 19.0 °F 30.15 in West 6.0 mph 10.0 mph 76% 0.00 in
09:40 25.8 °F 19.3 °F 30.15 in West 4.0 mph 9.0 mph 76% 0.00 in
09:45 25.9 °F 19.1 °F 30.16 in WSW 7.0 mph 9.0 mph 75% 0.00 in
09:50 26.0 °F 19.2 °F 30.16 in WSW 5.0 mph 6.0 mph 75% 0.00 in
09:55 26.1 °F 19.9 °F 30.16 in WSW 2.0 mph 6.0 mph 77% 0.00 in
10:00 26.2 °F 20.0 °F 30.16 in SW 4.0 mph 7.0 mph 77% 0.00 in
10:05 26.1 °F 19.6 °F 30.16 in SW 6.0 mph 9.0 mph 76% 0.00 in
10:10 26.1 °F 19.9 °F 30.16 in West 5.0 mph 10.0 mph 77% 0.00 in
10:15 26.1 °F 19.9 °F 30.17 in WSW 6.0 mph 12.0 mph 77% 0.00 in
10:20 26.3 °F 19.5 °F 30.17 in WSW 9.0 mph 12.0 mph 75% 0.00 in
10:25 26.3 °F 19.1 °F 30.17 in WSW 10.0 mph 10.0 mph 74% 0.00 in
10:30 26.3 °F 18.5 °F 30.17 in West 6.0 mph 11.0 mph 72% 0.00 in
10:35 26.6 °F 19.1 °F 30.17 in West 7.0 mph 13.0 mph 73% 0.00 in
10:37 26.6 °F 19.1 °F 30.17 in SSW 6.0 mph 10.0 mph 73% 0.00 in
10:42 27.1 °F 19.3 °F 30.17 in WNW 5.0 mph 8.0 mph 72% 0.00 in
10:47 27.8 °F 19.0 °F 30.18 in SW 12.0 mph 12.0 mph 69% 0.00 in
10:52 28.0 °F 20.2 °F 30.18 in SW 10.0 mph 11.0 mph 72% 0.00 in
10:57 28.2 °F 19.7 °F 30.18 in WNW 7.0 mph 11.0 mph 70% 0.00 in
11:02 27.6 °F 18.1 °F 30.19 in West 8.0 mph 10.0 mph 67% 0.00 in
11:07 27.6 °F 18.8 °F 30.19 in West 4.0 mph 10.0 mph 69% 0.00 in
11:12 28.3 °F 19.8 °F 30.19 in West 6.0 mph 9.0 mph 70% 0.00 in
11:17 27.9 °F 18.7 °F 30.20 in WSW 8.0 mph 14.0 mph 68% 0.00 in
11:23 27.6 °F 18.1 °F 30.19 in WSW 10.0 mph 12.0 mph 67% 0.00 in
11:28 27.7 °F 18.5 °F 30.20 in WSW 8.0 mph 13.0 mph 68% 0.00 in
11:33 27.6 °F 18.1 °F 30.19 in West 10.0 mph 13.0 mph 67% 0.00 in
11:38 28.1 °F 18.9 °F 30.19 in WSW 5.0 mph 9.0 mph 68% 0.00 in
11:43 28.7 °F 18.4 °F 30.19 in WSW 8.0 mph 10.0 mph 65% 0.00 in
11:48 29.2 °F 18.5 °F 30.19 in West 6.0 mph 11.0 mph 64% 0.00 in
11:53 29.2 °F 18.2 °F 30.19 in NW 10.0 mph 14.0 mph 63% 0.00 in
11:58 29.5 °F 19.9 °F 30.19 in SSW 8.0 mph 13.0 mph 67% 0.00 in
12:03 29.5 °F 18.5 °F 30.18 in WSW 7.0 mph 17.0 mph 63% 0.00 in
12:08 29.8 °F 19.8 °F 30.18 in SW 7.0 mph 11.0 mph 66% 0.00 in
12:13 30.1 °F 20.5 °F 30.18 in West 9.0 mph 14.0 mph 67% 0.00 in
12:18 30.0 °F 19.3 °F 30.18 in WSW 5.0 mph 12.0 mph 64% 0.00 in
12:24 30.0 °F 20.7 °F 30.18 in WNW 5.0 mph 12.0 mph 68% 0.00 in
12:29 30.7 °F 21.1 °F 30.17 in WSW 7.0 mph 10.0 mph 67% 0.00 in
12:34 30.9 °F 20.5 °F 30.17 in SSW 9.0 mph 9.0 mph 65% 0.00 in
12:39 30.9 °F 20.2 °F 30.17 in SW 4.0 mph 13.0 mph 64% 0.00 in
12:44 31.1 °F 20.0 °F 30.17 in WSW 7.0 mph 15.0 mph 63% 0.00 in
12:49 31.3 °F 19.4 °F 30.17 in WSW 9.0 mph 11.0 mph 61% 0.00 in
12:54 31.4 °F 20.3 °F 30.17 in SSW 12.0 mph 13.0 mph 63% 0.00 in
12:59 31.3 °F 19.8 °F 30.17 in SW 8.0 mph 14.0 mph 62% 0.00 in
13:04 31.3 °F 19.4 °F 30.16 in WSW 13.0 mph 14.0 mph 61% 0.00 in
13:09 31.2 °F 19.7 °F 30.16 in West 7.0 mph 12.0 mph 62% 0.00 in
13:14 31.4 °F 21.4 °F 30.16 in SW 6.0 mph 9.0 mph 66% 0.00 in
13:19 32.2 °F 22.1 °F 30.16 in SW 8.0 mph 9.0 mph 66% 0.00 in
13:24 32.3 °F 20.0 °F 30.16 in WSW 8.0 mph 13.0 mph 60% 0.00 in
13:29 32.2 °F 21.4 °F 30.16 in WSW 7.0 mph 11.0 mph 64% 0.00 in
13:34 32.4 °F 20.5 °F 30.16 in SW 13.0 mph 15.0 mph 61% 0.00 in
13:39 32.3 °F 20.0 °F 30.16 in SSW 7.0 mph 15.0 mph 60% 0.00 in
13:44 32.7 °F 21.5 °F 30.16 in SW 9.0 mph 11.0 mph 63% 0.00 in
13:49 32.8 °F 21.2 °F 30.16 in WSW 11.0 mph 11.0 mph 62% 0.00 in
13:54 33.3 °F 21.7 °F 30.16 in SW 8.0 mph 13.0 mph 62% 0.00 in
13:59 33.1 °F 20.7 °F 30.16 in SSW 5.0 mph 13.0 mph 60% 0.00 in
14:04 33.0 °F 21.0 °F 30.16 in West 4.0 mph 13.0 mph 61% 0.00 in
14:09 33.2 °F 20.4 °F 30.16 in West 4.0 mph 11.0 mph 59% 0.00 in
14:14 33.3 °F 21.7 °F 30.16 in West 7.0 mph 13.0 mph 62% 0.00 in
14:19 32.9 °F 19.8 °F 30.16 in SW 7.0 mph 12.0 mph 58% 0.00 in
14:25 32.9 °F 20.2 °F 30.16 in South 6.0 mph 13.0 mph 59% 0.00 in
14:30 33.2 °F 20.8 °F 30.16 in SW 11.0 mph 13.0 mph 60% 0.00 in
14:35 33.3 °F 20.5 °F 30.16 in WSW 11.0 mph 16.0 mph 59% 0.00 in
14:40 33.3 °F 20.5 °F 30.15 in SW 14.0 mph 16.0 mph 59% 0.00 in
14:45 33.4 °F 21.0 °F 30.16 in SW 11.0 mph 14.0 mph 60% 0.00 in
14:46 33.3 °F 20.9 °F 30.16 in WSW 10.0 mph 14.0 mph 60% 0.00 in
14:51 33.5 °F 21.1 °F 30.16 in SW 5.0 mph 10.0 mph 60% 0.00 in
14:56 33.5 °F 20.3 °F 30.16 in WNW 7.0 mph 15.0 mph 58% 0.00 in
15:01 33.5 °F 20.7 °F 30.15 in WNW 7.0 mph 15.0 mph 59% 0.00 in
15:06 33.1 °F 19.9 °F 30.15 in SSW 13.0 mph 15.0 mph 58% 0.00 in
15:11 32.9 °F 20.5 °F 30.16 in WSW 4.0 mph 12.0 mph 60% 0.00 in
15:16 32.9 °F 20.5 °F 30.16 in SW 12.0 mph 12.0 mph 60% 0.00 in
15:21 32.8 °F 20.5 °F 30.16 in WSW 8.0 mph 13.0 mph 60% 0.00 in
15:27 32.9 °F 21.3 °F 30.16 in WSW 9.0 mph 11.0 mph 62% 0.00 in
15:32 33.6 °F 22.0 °F 30.16 in WSW 6.0 mph 10.0 mph 62% 0.00 in
15:37 34.1 °F 21.3 °F 30.16 in SW 6.0 mph 12.0 mph 59% 0.00 in
15:42 34.8 °F 22.3 °F 30.16 in WSW 11.0 mph 12.0 mph 60% 0.00 in
15:47 34.5 °F 20.9 °F 30.17 in SW 8.0 mph 12.0 mph 57% 0.00 in
15:52 34.4 °F 20.8 °F 30.17 in WSW 12.0 mph 14.0 mph 57% 0.00 in
15:57 34.4 °F 21.6 °F 30.17 in WSW 11.0 mph 13.0 mph 59% 0.00 in
16:02 34.6 °F 21.0 °F 30.17 in SW 7.0 mph 14.0 mph 57% 0.00 in
16:07 34.4 °F 20.8 °F 30.17 in WSW 8.0 mph 17.0 mph 57% 0.00 in
16:12 34.4 °F 20.8 °F 30.16 in SW 7.0 mph 13.0 mph 57% 0.00 in
16:17 34.7 °F 21.0 °F 30.17 in SSW 6.0 mph 11.0 mph 57% 0.00 in
16:22 35.2 °F 21.1 °F 30.17 in West 5.0 mph 12.0 mph 56% 0.00 in
16:27 35.0 °F 20.5 °F 30.17 in West 6.0 mph 13.0 mph 55% 0.00 in
16:32 34.9 °F 21.2 °F 30.17 in WSW 8.0 mph 10.0 mph 57% 0.00 in
16:37 35.1 °F 22.2 °F 30.17 in WSW 4.0 mph 9.0 mph 59% 0.00 in
16:42 34.9 °F 21.2 °F 30.17 in WSW 8.0 mph 11.0 mph 57% 0.00 in
16:47 34.4 °F 21.6 °F 30.17 in WSW 10.0 mph 10.0 mph 59% 0.00 in
16:52 34.1 °F 22.1 °F 30.17 in WSW 2.0 mph 6.0 mph 61% 0.00 in
16:58 34.5 °F 22.5 °F 30.17 in WSW 7.0 mph 7.0 mph 61% 0.00 in
17:03 34.7 °F 21.5 °F 30.17 in SW 3.0 mph 8.0 mph 58% 0.00 in
17:08 34.7 °F 20.6 °F 30.17 in WSW 6.0 mph 9.0 mph 56% 0.00 in
17:13 34.7 °F 20.6 °F 30.17 in WSW 5.0 mph 10.0 mph 56% 0.00 in
17:18 34.8 °F 22.0 °F 30.17 in WSW 3.0 mph 7.0 mph 59% 0.00 in
17:23 34.7 °F 20.6 °F 30.17 in WSW 8.0 mph 11.0 mph 56% 0.00 in
17:28 34.6 °F 21.0 °F 30.17 in SW 4.0 mph 6.0 mph 57% 0.00 in
17:33 34.5 °F 20.9 °F 30.17 in SW 5.0 mph 11.0 mph 57% 0.00 in
17:38 34.4 °F 20.8 °F 30.17 in WSW 4.0 mph 7.0 mph 57% 0.00 in
17:43 34.2 °F 20.6 °F 30.17 in SSW 4.0 mph 7.0 mph 57% 0.00 in
17:48 34.0 °F 20.8 °F 30.17 in SW 5.0 mph 5.0 mph 58% 0.00 in
17:53 33.7 °F 20.5 °F 30.17 in WSW 4.0 mph 7.0 mph 58% 0.00 in
17:58 33.2 °F 20.8 °F 30.17 in SW 2.0 mph 6.0 mph 60% 0.00 in
18:03 32.8 °F 20.9 °F 30.17 in SW 3.0 mph 5.0 mph 61% 0.00 in
18:08 32.5 °F 20.6 °F 30.17 in WSW 4.0 mph 7.0 mph 61% 0.00 in
18:13 32.3 °F 20.8 °F 30.17 in WSW 3.0 mph 4.0 mph 62% 0.00 in
18:18 32.2 °F 20.7 °F 30.17 in SSW 3.0 mph 6.0 mph 62% 0.00 in
18:23 31.7 °F 20.9 °F 30.17 in SW 2.0 mph 3.0 mph 64% 0.00 in
18:28 31.2 °F 20.5 °F 30.17 in SSW 2.0 mph 4.0 mph 64% 0.00 in
18:33 30.9 °F 20.5 °F 30.17 in South 3.0 mph 4.0 mph 65% 0.00 in
18:38 31.0 °F 20.6 °F 30.18 in SSW 3.0 mph 5.0 mph 65% 0.00 in
18:43 30.7 °F 20.3 °F 30.18 in SSW 2.0 mph 3.0 mph 65% 0.00 in
18:48 30.6 °F 20.6 °F 30.18 in SSW 4.0 mph 4.0 mph 66% 0.00 in
18:53 30.5 °F 20.5 °F 30.18 in SW 3.0 mph 4.0 mph 66% 0.00 in
18:59 30.3 °F 20.3 °F 30.19 in SW 3.0 mph 4.0 mph 66% 0.00 in
19:04 30.3 °F 20.3 °F 30.19 in SSW 3.0 mph 4.0 mph 66% 0.00 in
19:09 30.3 °F 20.3 °F 30.19 in SW 4.0 mph 4.0 mph 66% 0.00 in
19:14 30.3 °F 20.3 °F 30.19 in SW 2.0 mph 3.0 mph 66% 0.00 in
19:19 30.3 °F 20.3 °F 30.19 in SW 3.0 mph 4.0 mph 66% 0.00 in
19:24 30.2 °F 20.2 °F 30.19 in SW 3.0 mph 4.0 mph 66% 0.00 in
19:29 30.1 °F 20.1 °F 30.20 in SW 2.0 mph 3.0 mph 66% 0.00 in
19:34 29.9 °F 19.9 °F 30.20 in SW 2.0 mph 3.0 mph 66% 0.00 in
19:39 29.8 °F 19.8 °F 30.20 in SW 3.0 mph 3.0 mph 66% 0.00 in
19:44 29.8 °F 19.8 °F 30.20 in SW 2.0 mph 4.0 mph 66% 0.00 in
19:49 29.7 °F 19.8 °F 30.20 in SW 2.0 mph 4.0 mph 66% 0.00 in
19:54 29.7 °F 19.8 °F 30.20 in SW 3.0 mph 4.0 mph 66% 0.00 in
19:59 29.5 °F 19.9 °F 30.21 in SSW 3.0 mph 4.0 mph 67% 0.00 in
20:04 29.5 °F 19.9 °F 30.21 in SW 2.0 mph 3.0 mph 67% 0.00 in
20:09 29.4 °F 19.8 °F 30.21 in SSW 2.0 mph 3.0 mph 67% 0.00 in
20:14 29.5 °F 19.9 °F 30.21 in SW 3.0 mph 4.0 mph 67% 0.00 in
20:19 29.3 °F 19.7 °F 30.21 in SW 2.0 mph 3.0 mph 67% 0.00 in
20:24 29.2 °F 19.6 °F 30.21 in SW 2.0 mph 3.0 mph 67% 0.00 in
20:29 29.1 °F 19.5 °F 30.21 in SW 2.0 mph 3.0 mph 67% 0.00 in
20:34 29.0 °F 19.8 °F 30.22 in SW 2.0 mph 2.0 mph 68% 0.00 in
20:39 29.1 °F 19.5 °F 30.22 in SW 2.0 mph 2.0 mph 67% 0.00 in
20:44 29.3 °F 19.7 °F 30.22 in SW 1.0 mph 3.0 mph 67% 0.00 in
20:49 29.3 °F 19.4 °F 30.22 in SW 2.0 mph 3.0 mph 66% 0.00 in
20:54 29.2 °F 19.6 °F 30.22 in SSW 1.0 mph 2.0 mph 67% 0.00 in
20:59 29.2 °F 19.6 °F 30.22 in SW 2.0 mph 2.0 mph 67% 0.00 in
21:04 29.0 °F 19.4 °F 30.22 in SW 1.0 mph 2.0 mph 67% 0.00 in
21:09 28.9 °F 19.3 °F 30.22 in SSW 1.0 mph 2.0 mph 67% 0.00 in
21:14 28.8 °F 19.2 °F 30.23 in Calm   2.0 mph 67% 0.00 in
21:20 28.7 °F 19.1 °F 30.23 in Calm   1.0 mph 67% 0.00 in
21:25 28.6 °F 19.0 °F 30.23 in SW 1.0 mph 1.0 mph 67% 0.00 in
21:30 28.6 °F 19.0 °F 30.23 in South 1.0 mph 2.0 mph 67% 0.00 in
21:35 28.5 °F 19.0 °F 30.23 in South 2.0 mph 2.0 mph 67% 0.00 in
21:40 28.4 °F 19.2 °F 30.23 in SW 2.0 mph 2.0 mph 68% 0.00 in
21:45 28.3 °F 19.1 °F 30.22 in SSW 1.0 mph 1.0 mph 68% 0.00 in
21:50 28.2 °F 19.0 °F 30.22 in SSW 1.0 mph 1.0 mph 68% 0.00 in
21:55 28.3 °F 19.1 °F 30.23 in SW 2.0 mph 2.0 mph 68% 0.00 in
22:00 28.3 °F 19.1 °F 30.23 in SW 3.0 mph 3.0 mph 68% 0.00 in
22:05 28.3 °F 19.5 °F 30.24 in SSW 2.0 mph 2.0 mph 69% 0.00 in
22:10 28.3 °F 19.5 °F 30.24 in WSW 2.0 mph 3.0 mph 69% 0.00 in
22:15 28.4 °F 19.2 °F 30.24 in WSW 2.0 mph 3.0 mph 68% 0.00 in
22:20 28.4 °F 19.2 °F 30.24 in SW 2.0 mph 3.0 mph 68% 0.00 in
22:25 28.2 °F 19.4 °F 30.24 in SW 1.0 mph 2.0 mph 69% 0.00 in
22:30 28.0 °F 19.2 °F 30.24 in SW 1.0 mph 1.0 mph 69% 0.00 in
22:35 27.9 °F 19.1 °F 30.24 in SSW 1.0 mph 2.0 mph 69% 0.00 in
22:40 27.8 °F 19.0 °F 30.23 in SSW 1.0 mph 2.0 mph 69% 0.00 in
22:45 27.8 °F 19.0 °F 30.24 in SSW 1.0 mph 2.0 mph 69% 0.00 in
22:50 27.6 °F 18.8 °F 30.24 in SSW 2.0 mph 3.0 mph 69% 0.00 in
22:55 27.5 °F 19.0 °F 30.24 in SW 1.0 mph 2.0 mph 70% 0.00 in
23:00 27.5 °F 19.0 °F 30.23 in Calm   2.0 mph 70% 0.00 in
23:05 27.5 °F 19.0 °F 30.24 in SSW 2.0 mph 2.0 mph 70% 0.00 in
23:10 27.4 °F 18.9 °F 30.24 in SSW 4.0 mph 4.0 mph 70% 0.00 in
23:15 27.3 °F 18.8 °F 30.24 in SW 4.0 mph 4.0 mph 70% 0.00 in
23:20 27.4 °F 18.9 °F 30.24 in SW 3.0 mph 4.0 mph 70% 0.00 in
23:25 27.4 °F 18.9 °F 30.24 in SW 3.0 mph 3.0 mph 70% 0.00 in
23:30 27.4 °F 18.9 °F 30.24 in SW 2.0 mph 5.0 mph 70% 0.00 in
23:35 27.7 °F 19.2 °F 30.24 in WSW 2.0 mph 4.0 mph 70% 0.00 in
23:40 27.8 °F 19.0 °F 30.24 in WSW 2.0 mph 2.0 mph 69% 0.00 in
23:45 27.9 °F 19.1 °F 30.24 in WSW 2.0 mph 3.0 mph 69% 0.00 in
23:50 28.0 °F 19.2 °F 30.24 in WSW 3.0 mph 4.0 mph 69% 0.00 in
23:55 27.8 °F 19.0 °F 30.24 in SW 2.0 mph 3.0 mph 69% 0.00 in
Compliments of Weather Underground